createdAt,value
2023-02-19T00:01:41.473Z,9.40
2023-02-19T00:05:44.335Z,9.40
2023-02-19T00:09:49.123Z,9.40
2023-02-19T00:13:53.704Z,9.40
2023-02-19T00:17:56.551Z,9.40
2023-02-19T00:21:59.580Z,9.40
2023-02-19T00:26:17.618Z,9.50
2023-02-19T00:30:21.768Z,9.50
2023-02-19T00:34:24.787Z,9.50
2023-02-19T00:38:30.758Z,9.50
2023-02-19T00:42:44.423Z,9.50
2023-02-19T00:46:51.959Z,9.50
2023-02-19T00:50:54.800Z,9.60
2023-02-19T00:54:57.627Z,9.60
2023-02-19T00:59:01.984Z,9.60
2023-02-19T01:03:04.911Z,9.70
2023-02-19T01:07:10.087Z,9.60
2023-02-19T01:11:14.025Z,9.70
2023-02-19T01:15:18.540Z,9.70
2023-02-19T01:19:21.352Z,9.80
2023-02-19T01:23:24.220Z,9.80
2023-02-19T01:27:34.135Z,9.80
2023-02-19T01:31:40.929Z,9.80
2023-02-19T01:35:43.790Z,9.80
2023-02-19T01:39:46.590Z,9.80
2023-02-19T01:44:01.577Z,9.80
2023-02-19T01:48:10.286Z,9.80
2023-02-19T01:52:17.605Z,9.80
2023-02-19T01:56:22.110Z,9.70
2023-02-19T02:00:25.784Z,9.80
2023-02-19T02:04:31.921Z,9.80
2023-02-19T02:09:00.986Z,9.80
2023-02-19T02:13:03.816Z,9.80
2023-02-19T02:17:14.104Z,9.80
2023-02-19T02:21:44.637Z,9.80
2023-02-19T02:26:09.547Z,9.80
2023-02-19T02:30:32.388Z,9.70
2023-02-19T02:34:42.200Z,9.70
2023-02-19T02:38:47.864Z,9.70
2023-02-19T02:42:52.620Z,9.70
2023-02-19T02:46:56.791Z,9.70
2023-02-19T02:51:07.452Z,9.60
2023-02-19T02:55:17.356Z,9.70
2023-02-19T02:59:23.108Z,9.70
2023-02-19T03:03:29.959Z,9.70
2023-02-19T03:07:37.613Z,9.70
2023-02-19T03:12:02.427Z,9.70
2023-02-19T03:16:28.879Z,9.60
2023-02-19T03:20:37.457Z,9.60
2023-02-19T03:25:02.139Z,9.60
2023-02-19T03:29:25.950Z,9.60
2023-02-19T03:33:36.355Z,9.60
2023-02-19T03:37:47.834Z,9.60
2023-02-19T03:41:59.817Z,9.60
2023-02-19T03:46:10.342Z,9.60
2023-02-19T03:50:18.974Z,9.50
2023-02-19T03:54:33.407Z,9.50
2023-02-19T03:58:45.518Z,9.50
2023-02-19T04:02:53.605Z,9.50
2023-02-19T04:06:58.234Z,9.50
2023-02-19T04:11:06.418Z,9.50
2023-02-19T04:15:14.349Z,9.40
2023-02-19T04:19:21.923Z,9.40
2023-02-19T04:23:28.936Z,9.40
2023-02-19T04:27:34.794Z,9.30
2023-02-19T04:31:38.916Z,9.30
2023-02-19T04:35:41.659Z,9.30
2023-02-19T04:39:44.459Z,9.20
2023-02-19T04:43:48.509Z,9.10
2023-02-19T04:47:51.217Z,9.10
2023-02-19T04:51:53.905Z,9.20
2023-02-19T04:55:56.662Z,9.10
2023-02-19T05:00:00.702Z,9.20
2023-02-19T05:04:04.815Z,9.20
2023-02-19T05:08:07.604Z,9.20
2023-02-19T05:12:10.295Z,9.20
2023-02-19T05:16:16.540Z,9.20
2023-02-19T05:20:19.459Z,9.10
2023-02-19T05:24:24.304Z,9.10
2023-02-19T05:28:29.396Z,9.10
2023-02-19T05:32:36.151Z,9.10
2023-02-19T05:36:39.977Z,9.10
2023-02-19T05:40:42.866Z,9.10
2023-02-19T05:44:45.595Z,9.00
2023-02-19T05:48:50.347Z,9.00
2023-02-19T05:52:53.079Z,9.00
2023-02-19T05:56:55.845Z,9.00
2023-02-19T06:00:58.605Z,9.00
2023-02-19T06:05:02.716Z,9.00
2023-02-19T06:09:05.792Z,9.00
2023-02-19T06:13:09.514Z,9.00
2023-02-19T06:17:12.536Z,9.00
2023-02-19T06:21:18.271Z,9.00
2023-02-19T06:25:21.686Z,9.00
2023-02-19T06:29:24.967Z,9.00
2023-02-19T06:33:28.138Z,9.00
2023-02-19T06:37:32.602Z,8.90
2023-02-19T06:41:35.870Z,8.90
2023-02-19T06:45:38.715Z,8.90
2023-02-19T06:49:41.801Z,8.90
2023-02-19T06:54:02.848Z,8.90
2023-02-19T06:58:05.728Z,8.90
2023-02-19T07:02:11.415Z,8.90
2023-02-19T07:06:14.245Z,8.90
2023-02-19T07:10:18.797Z,8.90
2023-02-19T07:14:21.825Z,8.90
2023-02-19T07:18:24.568Z,8.90
2023-02-19T07:22:28.253Z,8.90
2023-02-19T07:26:32.710Z,8.80
2023-02-19T07:30:36.158Z,8.90
2023-02-19T07:34:38.911Z,8.90
2023-02-19T07:38:41.700Z,8.90
2023-02-19T07:42:45.802Z,8.90
2023-02-19T07:46:50.615Z,8.90
2023-02-19T07:50:53.854Z,8.90
2023-02-19T07:54:56.567Z,8.90
2023-02-19T07:59:01.119Z,9.00
2023-02-19T08:03:04.014Z,9.00
2023-02-19T08:07:06.756Z,9.00
2023-02-19T08:11:28.196Z,8.60
2023-02-19T08:15:33.876Z,7.90
2023-02-19T08:19:36.847Z,7.50
2023-02-19T08:23:39.626Z,7.30
2023-02-19T08:27:42.496Z,7.20
2023-02-19T08:31:46.865Z,7.20
2023-02-19T08:35:49.923Z,7.10
2023-02-19T08:39:52.801Z,7.00
2023-02-19T08:43:55.647Z,7.10
2023-02-19T08:48:00.260Z,7.10
2023-02-19T08:52:03.040Z,7.10
2023-02-19T08:56:07.113Z,7.10
2023-02-19T09:00:12.633Z,7.10
2023-02-19T09:04:17.922Z,7.00
2023-02-19T09:08:20.885Z,6.90
2023-02-19T09:12:28.958Z,6.80
2023-02-19T09:16:31.884Z,6.90
2023-02-19T09:20:36.089Z,6.90
2023-02-19T09:24:39.124Z,6.90
2023-02-19T09:28:43.249Z,6.90
2023-02-19T09:32:51.401Z,6.90
2023-02-19T09:36:56.402Z,6.90
2023-02-19T09:41:00.046Z,6.90
2023-02-19T09:45:05.309Z,6.90
2023-02-19T09:49:14.167Z,6.90
2023-02-19T09:53:24.500Z,7.00
2023-02-19T09:57:30.702Z,7.00
2023-02-19T10:01:39.902Z,7.00
2023-02-19T10:05:43.776Z,7.00
2023-02-19T10:09:53.586Z,7.10
2023-02-19T10:14:05.380Z,7.20
2023-02-19T10:18:10.897Z,7.40
2023-02-19T10:22:22.735Z,7.40
2023-02-19T10:26:27.593Z,7.50
2023-02-19T10:30:32.762Z,7.60
2023-02-19T10:34:44.634Z,7.50
2023-02-19T10:38:48.796Z,7.40
2023-02-19T10:42:56.483Z,7.40
2023-02-19T10:47:01.212Z,7.30
2023-02-19T10:51:10.609Z,7.40
2023-02-19T10:55:25.762Z,7.30
2023-02-19T10:59:30.400Z,7.40
2023-02-19T11:03:33.216Z,7.50
2023-02-19T11:07:39.635Z,7.70
2023-02-19T11:11:44.521Z,7.80
2023-02-19T11:15:55.034Z,7.80
2023-02-19T11:20:08.159Z,7.90
2023-02-19T11:24:27.064Z,8.00
2023-02-19T11:28:36.031Z,8.00
2023-02-19T11:32:49.763Z,8.20
2023-02-19T11:37:10.176Z,8.30
2023-02-19T11:41:20.230Z,8.20
2023-02-19T11:45:36.821Z,8.10
2023-02-19T11:49:48.988Z,8.00
2023-02-19T11:54:02.011Z,8.00
2023-02-19T11:58:29.363Z,7.90
2023-02-19T12:02:54.165Z,7.80
2023-02-19T12:07:06.430Z,7.90
2023-02-19T12:11:20.175Z,7.90
2023-02-19T12:15:31.769Z,8.00
2023-02-19T12:19:57.780Z,8.00
2023-02-19T12:24:22.886Z,8.10
2023-02-19T12:29:00.404Z,8.30
2023-02-19T12:33:29.501Z,8.30
2023-02-19T12:37:42.314Z,8.40
2023-02-19T12:42:03.931Z,8.40
2023-02-19T12:46:13.765Z,8.50
2023-02-19T12:50:21.265Z,8.60
2023-02-19T12:54:28.791Z,8.70
2023-02-19T12:58:43.888Z,8.70
2023-02-19T13:02:53.004Z,8.60
2023-02-19T13:07:03.396Z,8.60
2023-02-19T13:11:20.319Z,8.50
2023-02-19T13:15:36.570Z,8.60
2023-02-19T13:19:50.230Z,8.60
2023-02-19T13:24:03.324Z,8.60
2023-02-19T13:28:14.015Z,8.60
2023-02-19T13:32:35.343Z,8.60
2023-02-19T13:36:38.723Z,8.70
2023-02-19T13:40:43.615Z,8.70
2023-02-19T13:44:52.044Z,8.70
2023-02-19T13:49:40.712Z,8.70
2023-02-19T13:53:59.907Z,8.70
2023-02-19T13:58:37.797Z,8.60
2023-02-19T14:02:40.633Z,8.70
2023-02-19T14:07:13.322Z,8.80
2023-02-19T14:11:18.169Z,8.70
2023-02-19T14:15:43.948Z,8.80
2023-02-19T14:19:50.788Z,8.70
2023-02-19T14:23:58.420Z,8.70
2023-02-19T14:28:05.727Z,8.70
2023-02-19T14:32:11.321Z,8.70
2023-02-19T14:36:39.211Z,8.70
2023-02-19T14:40:43.147Z,8.60
2023-02-19T14:44:55.478Z,8.60
2023-02-19T14:49:04.985Z,8.50
2023-02-19T14:53:08.952Z,8.50
2023-02-19T14:57:20.135Z,8.40
2023-02-19T15:01:31.729Z,8.30
2023-02-19T15:05:37.604Z,8.30
2023-02-19T15:09:42.910Z,8.30
2023-02-19T15:13:50.498Z,8.20
2023-02-19T15:17:56.252Z,8.10
2023-02-19T15:21:59.183Z,8.10
2023-02-19T15:26:02.157Z,8.10
2023-02-19T15:30:05.271Z,8.10
2023-02-19T15:34:18.437Z,8.00
2023-02-19T15:38:23.608Z,8.00
2023-02-19T15:47:05.989Z,7.90
2023-02-19T15:51:16.566Z,7.80
2023-02-19T15:55:34.656Z,7.80
2023-02-19T15:59:43.107Z,7.80
2023-02-19T16:03:46.182Z,7.80
2023-02-19T16:08:09.896Z,7.80
2023-02-19T16:12:21.591Z,7.80
2023-02-19T16:16:41.466Z,7.70
2023-02-19T16:20:49.899Z,7.70
2023-02-19T16:25:02.214Z,7.70
2023-02-19T16:29:05.356Z,7.70
2023-02-19T16:33:46.120Z,7.60
2023-02-19T16:38:02.758Z,7.60
2023-02-19T16:42:16.358Z,7.50
2023-02-19T16:46:19.923Z,7.50
2023-02-19T16:50:25.012Z,7.40
2023-02-19T16:54:28.291Z,7.40
2023-02-19T16:58:32.676Z,7.40
2023-02-19T17:02:37.953Z,7.30
2023-02-19T17:06:52.420Z,7.30
2023-02-19T17:11:14.014Z,7.30
2023-02-19T17:15:19.028Z,7.30
2023-02-19T17:19:25.611Z,7.30
2023-02-19T17:23:29.120Z,7.20
2023-02-19T17:27:32.276Z,7.30
2023-02-19T17:31:42.245Z,7.20
2023-02-19T17:35:45.546Z,7.20
2023-02-19T17:39:50.378Z,7.20
2023-02-19T17:43:53.530Z,7.20
2023-02-19T17:47:57.893Z,7.20
2023-02-19T17:52:01.778Z,7.20
2023-02-19T17:56:05.110Z,7.20
2023-02-19T18:00:09.459Z,7.10
2023-02-19T18:04:16.752Z,7.10
2023-02-19T18:08:26.013Z,7.10
2023-02-19T18:12:36.653Z,7.10
2023-02-19T18:16:48.180Z,7.10
2023-02-19T18:20:53.918Z,7.10
2023-02-19T18:24:56.762Z,7.10
2023-02-19T18:29:02.910Z,7.10
2023-02-19T18:33:06.213Z,7.10
2023-02-19T18:37:10.488Z,7.00
2023-02-19T18:41:14.000Z,7.00
2023-02-19T18:45:17.427Z,7.00
2023-02-19T18:49:20.813Z,7.00
2023-02-19T18:53:25.317Z,7.00
2023-02-19T18:57:30.138Z,7.00
2023-02-19T19:01:33.500Z,7.00
2023-02-19T19:05:37.366Z,7.00
2023-02-19T19:09:41.697Z,7.00
2023-02-19T19:13:46.691Z,7.00
2023-02-19T19:17:50.444Z,7.00
2023-02-19T19:21:54.109Z,6.90
2023-02-19T19:25:58.689Z,6.90
2023-02-19T19:30:01.686Z,6.90
2023-02-19T19:34:05.232Z,6.90
2023-02-19T19:38:10.110Z,6.90
2023-02-19T19:42:26.368Z,6.90
2023-02-19T19:46:29.245Z,6.80
2023-02-19T19:50:32.194Z,6.80
2023-02-19T19:54:35.140Z,6.80
2023-02-19T19:58:42.406Z,6.90
2023-02-19T20:02:46.243Z,6.90
2023-02-19T20:06:49.437Z,6.90
2023-02-19T20:10:52.381Z,6.90
2023-02-19T20:14:57.379Z,6.90
2023-02-19T20:19:10.581Z,6.90
2023-02-19T20:23:15.876Z,6.80
2023-02-19T20:27:19.893Z,6.80
2023-02-19T20:31:24.620Z,6.80
2023-02-19T20:35:29.750Z,6.80
2023-02-19T20:39:32.874Z,6.80
2023-02-19T20:43:35.744Z,6.80
2023-02-19T20:47:41.495Z,6.80
2023-02-19T20:51:47.337Z,6.80
2023-02-19T20:55:50.264Z,6.80
2023-02-19T21:00:06.986Z,6.80
2023-02-19T21:04:11.663Z,6.90
2023-02-19T21:08:17.187Z,6.80
2023-02-19T21:12:21.387Z,6.80
2023-02-19T21:16:24.329Z,6.80
2023-02-19T21:20:28.771Z,6.80
2023-02-19T21:24:32.682Z,6.80
2023-02-19T21:28:35.638Z,6.80
2023-02-19T21:32:47.762Z,6.80
2023-02-19T21:36:52.122Z,6.70
2023-02-19T21:40:54.957Z,6.70
2023-02-19T21:44:57.859Z,6.80
2023-02-19T21:49:01.649Z,6.80
2023-02-19T21:53:05.997Z,6.80
2023-02-19T21:57:09.570Z,6.80
2023-02-19T22:01:12.583Z,6.80
2023-02-19T22:05:15.760Z,6.70
2023-02-19T22:09:20.134Z,6.80
2023-02-19T22:13:23.068Z,6.80
2023-02-19T22:17:25.982Z,6.80
2023-02-19T22:21:32.283Z,6.70
2023-02-19T22:25:36.520Z,6.70
2023-02-19T22:29:39.506Z,6.70
2023-02-19T22:33:42.613Z,6.70
2023-02-19T22:37:52.058Z,6.60
2023-02-19T22:41:59.883Z,6.60
2023-02-19T22:46:03.106Z,6.60
2023-02-19T22:50:06.997Z,6.60
2023-02-19T22:54:09.843Z,6.50
2023-02-19T22:58:14.037Z,6.50
2023-02-19T23:02:17.188Z,6.50
2023-02-19T23:06:24.260Z,6.50
2023-02-19T23:10:28.294Z,6.50
2023-02-19T23:14:32.487Z,6.50
2023-02-19T23:18:35.371Z,6.50
2023-02-19T23:22:38.189Z,6.50
2023-02-19T23:26:43.424Z,6.50
2023-02-19T23:35:00.122Z,6.50
2023-02-19T23:39:02.818Z,6.50
2023-02-19T23:43:05.610Z,6.40
2023-02-19T23:47:08.374Z,6.40
2023-02-19T23:51:12.486Z,6.40
2023-02-19T23:55:15.224Z,6.40
2023-02-19T23:59:17.985Z,6.40
